Time;durP1;ratioP1;P1;durP2;ratioP2;P2;SDS_P1;SDS_P2;PMS_P1;PMS_P2;Temp;Humidity;BMP_temperature;BMP_pressure;BME280_temperature;BME280_humidity;BME280_pressure;Samples;Min_cycle;Max_cycle;Signal;HPM_P1;HPM_P2
2023/04/17 00:02:10;;;;;;;18.10;6.10;;;8.50;99.90;;;;;;5003368;28;20121;-77
2023/04/17 00:04:37;;;;;;;20.73;6.47;;;8.40;99.90;;;;;;4989427;28;20042;-77
2023/04/17 00:07:03;;;;;;;18.10;6.82;;;8.50;99.90;;;;;;5001037;28;20525;-77
2023/04/17 00:09:29;;;;;;;20.27;8.05;;;8.40;99.90;;;;;;5004609;28;20041;-77
2023/04/17 00:11:55;;;;;;;18.52;7.53;;;8.40;99.90;;;;;;5015859;28;20333;-77
2023/04/17 00:14:21;;;;;;;20.80;7.22;;;8.40;99.90;;;;;;5032239;28;20054;-77
2023/04/17 00:16:46;;;;;;;18.58;6.55;;;8.40;99.90;;;;;;5032538;28;20049;-76
2023/04/17 00:19:12;;;;;;;23.23;6.90;;;8.40;99.90;;;;;;5005888;28;20030;-77
2023/04/17 00:21:37;;;;;;;19.60;6.63;;;8.40;99.90;;;;;;5036831;28;20042;-76
2023/04/17 00:24:03;;;;;;;21.42;7.70;;;8.40;99.90;;;;;;5035997;28;20041;-77
2023/04/17 00:26:31;;;;;;;18.67;6.68;;;8.50;99.90;;;;;;5035775;28;20507;-76
2023/04/17 00:28:56;;;;;;;21.10;7.68;;;8.50;99.90;;;;;;5037630;28;20542;-76
2023/04/17 00:31:22;;;;;;;16.17;6.53;;;8.50;99.90;;;;;;5002133;28;20069;-76
2023/04/17 00:33:48;;;;;;;16.77;6.45;;;8.50;99.90;;;;;;5036015;28;20065;-77
2023/04/17 00:36:14;;;;;;;17.30;6.78;;;8.50;99.90;;;;;;5034539;28;20088;-77
2023/04/17 00:38:40;;;;;;;19.52;6.55;;;8.50;99.90;;;;;;5018588;28;20026;-77
2023/04/17 00:41:05;;;;;;;17.88;6.53;;;8.50;99.90;;;;;;5035990;28;20056;-76
2023/04/17 00:43:31;;;;;;;21.20;6.97;;;8.50;99.90;;;;;;5028358;28;20533;-76
2023/04/17 00:45:57;;;;;;;21.17;6.97;;;8.50;99.90;;;;;;4988064;28;20120;-77
2023/04/17 00:48:23;;;;;;;18.90;7.47;;;8.50;99.90;;;;;;5037643;28;20133;-77
2023/04/17 00:50:50;;;;;;;22.75;7.10;;;8.50;99.90;;;;;;5037282;28;20726;-77
2023/04/17 00:53:16;;;;;;;23.42;7.72;;;8.50;99.90;;;;;;5035186;28;20042;-76
2023/04/17 00:55:43;;;;;;;18.02;7.50;;;8.60;99.90;;;;;;5015490;28;20159;-76
2023/04/17 00:58:10;;;;;;;20.13;7.75;;;8.50;99.90;;;;;;5032968;28;20038;-76
2023/04/17 01:00:36;;;;;;;20.55;6.63;;;8.50;99.90;;;;;;5002370;28;20033;-76
2023/04/17 01:03:02;;;;;;;21.63;8.07;;;8.50;99.90;;;;;;5036526;28;20033;-77
2023/04/17 01:05:28;;;;;;;21.33;7.15;;;8.50;99.90;;;;;;5035986;28;20600;-77
2023/04/17 01:07:55;;;;;;;18.20;7.32;;;8.50;99.90;;;;;;5000965;28;20091;-76
2023/04/17 01:10:21;;;;;;;20.73;7.80;;;8.50;99.90;;;;;;5016013;28;20120;-76
2023/04/17 01:13:02;;;;;;;21.02;7.50;;;8.50;99.90;;;;;;5048614;28;20538;-77
2023/04/17 01:15:28;;;;;;;21.23;7.53;;;8.50;99.90;;;;;;4998495;28;20076;-77
2023/04/17 01:17:53;;;;;;;16.55;7.47;;;8.50;99.90;;;;;;5001857;28;20604;-77
2023/04/17 01:20:19;;;;;;;21.00;7.85;;;8.50;99.90;;;;;;5030326;28;20852;-77
2023/04/17 01:22:48;;;;;;;24.08;7.72;;;8.50;99.90;;;;;;5020151;28;20084;-76
2023/04/17 01:25:14;;;;;;;24.23;7.63;;;8.50;99.90;;;;;;5017482;28;20038;-77
2023/04/17 01:27:40;;;;;;;20.63;7.50;;;8.50;99.90;;;;;;5000521;28;20030;-76
2023/04/17 01:30:07;;;;;;;19.08;7.53;;;8.40;99.90;;;;;;5029215;28;20416;-76
2023/04/17 01:32:32;;;;;;;26.98;8.38;;;8.40;99.90;;;;;;5048049;28;20042;-77
2023/04/17 01:34:58;;;;;;;20.35;7.38;;;8.50;99.90;;;;;;5027685;28;20392;-76
2023/04/17 01:37:24;;;;;;;21.15;7.60;;;8.50;99.90;;;;;;5035660;28;20377;-76
2023/04/17 01:39:50;;;;;;;22.40;8.13;;;8.50;99.90;;;;;;4999618;28;20352;-76
2023/04/17 01:42:15;;;;;;;22.77;8.07;;;8.50;99.90;;;;;;5035279;28;20026;-76
2023/04/17 01:44:41;;;;;;;26.25;8.77;;;8.50;99.90;;;;;;5027379;28;20123;-76
2023/04/17 01:47:07;;;;;;;21.77;6.97;;;8.50;99.90;;;;;;5024050;28;20501;-76
2023/04/17 01:49:32;;;;;;;25.17;7.78;;;8.50;99.90;;;;;;5027185;28;20041;-77
2023/04/17 01:51:58;;;;;;;19.75;7.15;;;8.50;99.90;;;;;;5029880;28;20045;-77
2023/04/17 01:54:24;;;;;;;20.02;7.93;;;8.50;99.90;;;;;;5020272;28;20475;-76
2023/04/17 01:56:50;;;;;;;27.20;9.05;;;8.50;99.90;;;;;;5039022;28;20034;-76
2023/04/17 01:59:15;;;;;;;24.38;8.13;;;8.50;99.90;;;;;;5021629;28;20069;-77
2023/04/17 02:01:41;;;;;;;23.05;7.78;;;8.50;99.90;;;;;;5020919;28;20041;-77
2023/04/17 02:04:07;;;;;;;23.65;7.82;;;8.40;99.90;;;;;;5023753;28;20038;-76
2023/04/17 02:06:32;;;;;;;22.23;8.43;;;8.40;99.90;;;;;;5020424;28;20471;-76
2023/04/17 02:08:58;;;;;;;24.00;7.82;;;8.40;99.90;;;;;;5040201;28;20052;-77
2023/04/17 02:11:25;;;;;;;26.58;9.02;;;8.40;99.90;;;;;;4990065;28;20089;-76
2023/04/17 02:13:50;;;;;;;21.05;7.07;;;8.40;99.90;;;;;;5016276;28;20484;-77
2023/04/17 02:16:20;;;;;;;24.20;8.32;;;8.40;99.90;;;;;;5020510;28;20133;-76
2023/04/17 02:18:46;;;;;;;24.83;8.88;;;8.40;99.90;;;;;;5038332;28;20072;-76
2023/04/17 02:21:12;;;;;;;22.48;8.02;;;8.40;99.90;;;;;;5050535;28;20741;-76
2023/04/17 02:23:38;;;;;;;28.00;8.13;;;8.40;99.90;;;;;;5006936;28;20061;-76
2023/04/17 02:26:04;;;;;;;25.60;7.93;;;8.40;99.90;;;;;;5039075;28;20129;-75
2023/04/17 02:28:29;;;;;;;24.58;7.97;;;8.40;99.90;;;;;;5000226;28;20037;-76
2023/04/17 02:30:55;;;;;;;22.38;7.53;;;8.40;99.90;;;;;;5051815;28;20037;-76
2023/04/17 02:33:21;;;;;;;25.13;6.95;;;8.50;99.90;;;;;;5021166;28;20048;-75
2023/04/17 02:35:47;;;;;;;25.33;7.57;;;8.40;99.90;;;;;;5021713;28;20220;-76
2023/04/17 02:38:13;;;;;;;24.58;8.63;;;8.40;99.90;;;;;;5007439;28;20372;-76
2023/04/17 02:40:38;;;;;;;24.58;8.05;;;8.50;99.90;;;;;;5037926;28;20030;-76
2023/04/17 02:43:04;;;;;;;24.65;8.07;;;8.40;99.90;;;;;;5004438;28;20044;-75
2023/04/17 02:45:30;;;;;;;28.35;9.15;;;8.50;99.90;;;;;;5021377;28;20029;-77
2023/04/17 02:47:55;;;;;;;26.55;8.98;;;8.40;99.90;;;;;;5020894;28;20077;-76
2023/04/17 02:50:21;;;;;;;23.52;8.57;;;8.40;99.90;;;;;;5005851;28;20146;-76
2023/04/17 02:52:47;;;;;;;25.42;8.75;;;8.40;99.90;;;;;;5021595;28;20562;-76
2023/04/17 02:55:13;;;;;;;24.92;8.40;;;8.40;99.90;;;;;;4987290;28;20042;-75
2023/04/17 02:57:38;;;;;;;30.20;9.20;;;8.40;99.90;;;;;;5047388;28;20033;-76
2023/04/17 03:00:12;;;;;;;27.88;8.55;;;8.40;99.90;;;;;;5036693;28;20038;-77
2023/04/17 03:02:37;;;;;;;26.67;8.77;;;8.40;99.90;;;;;;5003518;28;20062;-77
2023/04/17 03:05:04;;;;;;;24.98;9.57;;;8.40;99.90;;;;;;5004070;28;20502;-76
2023/04/17 03:07:29;;;;;;;25.45;8.88;;;8.40;99.90;;;;;;5005449;28;20487;-76
2023/04/17 03:09:56;;;;;;;22.15;8.35;;;8.40;99.90;;;;;;5054554;28;20395;-77
2023/04/17 03:12:22;;;;;;;26.33;8.68;;;8.40;99.90;;;;;;5016386;28;20058;-77
2023/04/17 03:14:48;;;;;;;25.77;8.45;;;8.40;99.90;;;;;;5004463;28;20045;-76
2023/04/17 03:17:14;;;;;;;24.08;7.88;;;8.50;99.90;;;;;;5037305;28;20041;-77
2023/04/17 03:19:40;;;;;;;28.10;8.18;;;8.40;99.90;;;;;;5003067;28;20030;-76
2023/04/17 03:22:05;;;;;;;25.33;9.23;;;8.40;99.90;;;;;;5020819;28;20030;-77
2023/04/17 03:24:31;;;;;;;22.17;7.07;;;8.40;99.90;;;;;;5004728;28;20520;-76
2023/04/17 03:26:57;;;;;;;23.90;8.90;;;8.40;99.90;;;;;;5000298;28;20407;-77
2023/04/17 03:29:23;;;;;;;26.63;8.27;;;8.40;99.90;;;;;;5039007;28;20056;-76
2023/04/17 03:31:49;;;;;;;19.60;7.72;;;8.40;99.90;;;;;;5020904;28;20495;-76
2023/04/17 03:34:20;;;;;;;24.52;8.50;;;8.40;99.90;;;;;;5037544;28;20196;-76
2023/04/17 03:36:45;;;;;;;29.15;8.07;;;8.40;99.90;;;;;;5032250;28;20072;-76
2023/04/17 03:39:11;;;;;;;29.15;8.82;;;8.40;99.90;;;;;;5002436;28;20480;-76
2023/04/17 03:41:37;;;;;;;27.95;8.40;;;8.40;99.90;;;;;;4998370;28;20423;-75
2023/04/17 03:44:04;;;;;;;27.60;9.05;;;8.30;99.90;;;;;;5021333;28;20037;-76
2023/04/17 03:46:30;;;;;;;22.10;8.20;;;8.30;99.90;;;;;;5034358;28;20041;-76
2023/04/17 03:48:56;;;;;;;24.27;7.30;;;8.30;99.90;;;;;;5005757;28;20052;-76
2023/04/17 03:51:21;;;;;;;25.08;8.18;;;8.30;99.90;;;;;;5021521;28;20038;-76
2023/04/17 03:53:47;;;;;;;24.38;8.60;;;8.30;99.90;;;;;;5051186;28;20038;-76
2023/04/17 03:56:13;;;;;;;25.75;8.27;;;8.30;99.90;;;;;;4994279;28;20042;-77
2023/04/17 03:58:38;;;;;;;25.50;8.38;;;8.30;99.90;;;;;;5053532;28;20033;-76
2023/04/17 04:01:09;;;;;;;26.33;8.45;;;8.30;99.90;;;;;;5020493;28;20462;-77
2023/04/17 04:03:35;;;;;;;25.75;7.38;;;8.20;99.90;;;;;;4987606;28;20045;-76
2023/04/17 04:06:01;;;;;;;27.70;7.90;;;8.30;99.90;;;;;;5003542;28;20038;-76
2023/04/17 04:08:27;;;;;;;24.20;8.23;;;8.20;99.90;;;;;;5029328;28;20038;-76
2023/04/17 04:10:53;;;;;;;25.70;7.78;;;8.20;99.90;;;;;;5035758;28;20403;-76
2023/04/17 04:13:18;;;;;;;20.38;7.22;;;8.20;99.90;;;;;;4979529;28;20049;-76
2023/04/17 04:15:44;;;;;;;23.70;7.55;;;8.20;99.90;;;;;;5019134;28;20039;-76
2023/04/17 04:18:10;;;;;;;21.02;7.32;;;8.20;99.90;;;;;;4987101;28;20120;-76
2023/04/17 04:20:36;;;;;;;23.60;7.85;;;8.20;99.90;;;;;;5037365;28;20049;-76
2023/04/17 04:23:02;;;;;;;21.77;7.80;;;8.20;99.90;;;;;;5003301;28;20073;-76
2023/04/17 04:25:27;;;;;;;22.00;7.95;;;8.20;99.90;;;;;;5003902;28;20034;-77
2023/04/17 04:27:55;;;;;;;18.23;6.38;;;8.20;99.90;;;;;;5035343;28;20191;-76
2023/04/17 04:30:24;;;;;;;18.58;6.65;;;8.20;99.90;;;;;;5018710;28;20041;-76
2023/04/17 04:32:50;;;;;;;19.83;7.65;;;8.20;99.90;;;;;;5016802;28;20506;-76
2023/04/17 04:35:16;;;;;;;22.10;7.85;;;8.20;99.90;;;;;;5002426;28;20411;-76
2023/04/17 04:37:45;;;;;;;22.45;7.45;;;8.10;99.90;;;;;;5000367;28;20030;-77
2023/04/17 04:40:11;;;;;;;17.83;6.55;;;8.10;99.90;;;;;;5003063;28;20121;-76
2023/04/17 04:42:38;;;;;;;19.15;6.88;;;8.10;99.90;;;;;;5018353;28;20040;-76
2023/04/17 04:45:05;;;;;;;23.30;7.55;;;8.10;99.90;;;;;;5000479;28;20116;-76
2023/04/17 04:47:31;;;;;;;21.30;7.43;;;8.10;99.90;;;;;;5019892;28;20041;-76
2023/04/17 04:49:56;;;;;;;19.02;7.15;;;8.10;99.90;;;;;;5033109;28;20049;-76
2023/04/17 04:52:22;;;;;;;19.63;7.03;;;8.10;99.90;;;;;;5036537;28;20054;-76
2023/04/17 04:54:48;;;;;;;19.10;7.22;;;8.10;99.90;;;;;;5002909;28;20057;-77
2023/04/17 04:57:13;;;;;;;20.77;7.78;;;8.10;99.90;;;;;;5033692;28;20030;-76
2023/04/17 04:59:39;;;;;;;19.35;6.40;;;8.10;99.90;;;;;;5002262;28;20141;-76
2023/04/17 05:02:04;;;;;;;20.00;7.18;;;8.00;99.90;;;;;;5002152;28;20084;-76
2023/04/17 05:04:30;;;;;;;21.85;7.13;;;8.00;99.90;;;;;;5005115;28;20187;-77
2023/04/17 05:06:56;;;;;;;17.25;8.00;;;8.00;99.90;;;;;;5019349;28;20323;-76
2023/04/17 05:09:21;;;;;;;21.42;7.45;;;8.00;99.90;;;;;;5053886;28;20401;-76
2023/04/17 05:11:47;;;;;;;16.40;6.30;;;8.10;99.90;;;;;;5032653;28;20060;-76
2023/04/17 05:14:13;;;;;;;18.98;6.32;;;8.00;99.90;;;;;;5051875;28;20510;-76
2023/04/17 05:16:40;;;;;;;19.20;7.20;;;8.00;99.90;;;;;;5002235;28;20046;-76
2023/04/17 05:19:05;;;;;;;22.92;6.43;;;8.00;99.90;;;;;;5003104;28;20042;-76
2023/04/17 05:21:31;;;;;;;18.80;7.13;;;8.00;99.90;;;;;;4999111;28;20044;-76
2023/04/17 05:23:57;;;;;;;16.23;6.07;;;7.90;99.90;;;;;;5004773;28;20121;-76
2023/04/17 05:26:22;;;;;;;24.02;6.57;;;7.90;99.90;;;;;;5006345;28;20034;-76
2023/04/17 05:28:48;;;;;;;18.25;6.35;;;7.90;99.90;;;;;;5006537;28;20041;-76
2023/04/17 05:31:14;;;;;;;20.13;6.82;;;7.90;99.90;;;;;;4987304;28;20054;-76
2023/04/17 05:33:40;;;;;;;20.40;6.18;;;7.80;99.90;;;;;;5002306;28;20100;-76
2023/04/17 05:36:06;;;;;;;19.98;6.90;;;7.80;99.90;;;;;;4986695;28;20045;-77
2023/04/17 05:38:32;;;;;;;22.42;6.72;;;7.90;99.90;;;;;;5005719;28;20037;-76
2023/04/17 05:40:57;;;;;;;18.58;6.53;;;7.90;99.90;;;;;;5008374;28;20040;-76
2023/04/17 05:43:23;;;;;;;16.27;6.72;;;7.90;99.90;;;;;;5053155;28;20030;-76
2023/04/17 05:45:49;;;;;;;27.13;7.47;;;7.90;99.90;;;;;;5023968;28;20065;-76
2023/04/17 05:48:15;;;;;;;22.58;7.97;;;7.90;99.90;;;;;;4991316;28;20030;-77
2023/04/17 05:50:40;;;;;;;21.90;7.10;;;7.90;99.90;;;;;;5054416;28;20120;-76
2023/04/17 05:53:06;;;;;;;21.85;6.97;;;7.90;99.90;;;;;;5039486;28;20041;-76
2023/04/17 05:55:32;;;;;;;17.55;6.75;;;7.90;99.90;;;;;;5039860;28;21016;-76
2023/04/17 05:57:58;;;;;;;22.67;7.38;;;7.90;99.90;;;;;;5007607;28;20446;-77
2023/04/17 06:00:23;;;;;;;16.75;6.78;;;7.90;99.90;;;;;;5006036;28;20045;-76
2023/04/17 06:02:49;;;;;;;16.02;5.40;;;7.90;99.90;;;;;;4998509;28;20034;-76
2023/04/17 06:05:16;;;;;;;16.27;6.13;;;7.90;99.90;;;;;;5003928;28;20462;-77
2023/04/17 06:07:42;;;;;;;18.15;6.68;;;8.00;99.90;;;;;;5014056;28;20049;-76
2023/04/17 06:10:09;;;;;;;17.92;6.70;;;7.90;99.90;;;;;;5020739;28;20048;-77
2023/04/17 06:12:36;;;;;;;23.58;7.53;;;8.00;99.90;;;;;;5007298;28;20085;-77
2023/04/17 06:15:02;;;;;;;17.02;6.47;;;8.00;99.90;;;;;;5014097;28;20049;-77
2023/04/17 06:17:29;;;;;;;20.15;6.20;;;8.00;99.90;;;;;;5056174;28;20511;-76
2023/04/17 06:19:55;;;;;;;19.10;7.15;;;8.00;99.90;;;;;;5009557;28;20034;-76
2023/04/17 06:22:21;;;;;;;22.83;6.72;;;8.00;99.90;;;;;;4994751;28;20029;-76
2023/04/17 06:24:47;;;;;;;15.90;6.28;;;8.00;99.90;;;;;;5002639;28;20037;-77
2023/04/17 06:27:13;;;;;;;16.17;6.65;;;8.00;99.90;;;;;;5020546;28;20046;-77
2023/04/17 06:29:39;;;;;;;21.05;7.45;;;8.10;99.90;;;;;;5001553;28;20038;-76
2023/04/17 06:32:05;;;;;;;17.88;6.97;;;8.10;99.90;;;;;;5036178;28;20073;-77
2023/04/17 06:34:32;;;;;;;15.60;6.85;;;8.10;99.90;;;;;;5029483;28;20557;-77
2023/04/17 06:36:59;;;;;;;17.55;6.40;;;8.10;99.90;;;;;;5000208;28;20042;-76
2023/04/17 06:39:25;;;;;;;36.97;6.97;;;8.20;99.90;;;;;;5037180;28;20048;-77
2023/04/17 06:41:50;;;;;;;17.98;6.50;;;8.20;99.90;;;;;;5003116;28;20025;-76
2023/04/17 06:44:17;;;;;;;21.70;7.13;;;8.20;99.90;;;;;;4992924;28;20057;-77
2023/04/17 06:46:43;;;;;;;14.65;6.25;;;8.20;99.90;;;;;;4979541;28;20046;-76
2023/04/17 06:49:09;;;;;;;20.85;6.55;;;8.20;99.90;;;;;;5025360;28;20045;-77
2023/04/17 06:51:34;;;;;;;21.23;7.05;;;8.20;99.90;;;;;;5035867;28;20042;-76
2023/04/17 06:54:00;;;;;;;19.23;7.47;;;8.20;99.90;;;;;;5030329;28;20446;-76
2023/04/17 06:56:26;;;;;;;18.85;7.38;;;8.20;99.90;;;;;;5005205;28;20034;-77
2023/04/17 06:58:52;;;;;;;19.42;7.15;;;8.30;99.90;;;;;;5021818;28;20168;-77
2023/04/17 07:01:18;;;;;;;18.30;7.45;;;8.30;99.90;;;;;;4998971;28;20117;-77
2023/04/17 07:03:45;;;;;;;19.38;6.60;;;8.30;99.90;;;;;;5037587;28;20096;-76
2023/04/17 07:06:11;;;;;;;16.60;6.25;;;8.30;99.90;;;;;;5005911;28;20063;-77
2023/04/17 07:08:36;;;;;;;18.95;7.32;;;8.30;99.90;;;;;;5034933;28;21432;-75
2023/04/17 07:11:02;;;;;;;16.30;6.82;;;8.40;99.90;;;;;;4999491;28;20056;-77
2023/04/17 07:13:30;;;;;;;19.75;7.25;;;8.30;99.90;;;;;;5034442;28;20407;-77
2023/04/17 07:15:57;;;;;;;21.70;7.55;;;8.40;99.90;;;;;;5036799;28;20449;-76
2023/04/17 07:18:24;;;;;;;18.70;6.32;;;8.40;99.90;;;;;;5018923;28;21190;-77
2023/04/17 07:20:50;;;;;;;20.02;7.30;;;8.40;99.90;;;;;;4994666;28;20034;-76
2023/04/17 07:23:16;;;;;;;20.25;7.43;;;8.50;99.90;;;;;;5035339;28;20030;-77
2023/04/17 07:25:42;;;;;;;20.20;7.50;;;8.50;99.90;;;;;;5021417;28;20038;-76
2023/04/17 07:28:09;;;;;;;22.20;7.28;;;8.60;99.90;;;;;;5023534;28;20117;-78
2023/04/17 07:30:34;;;;;;;19.23;7.80;;;8.60;99.90;;;;;;5001545;28;21322;-78
2023/04/17 07:33:00;;;;;;;22.48;8.48;;;8.60;99.90;;;;;;5037146;28;20479;-77
2023/04/17 07:35:26;;;;;;;19.88;8.43;;;8.70;99.90;;;;;;5036078;28;20042;-77
2023/04/17 07:37:52;;;;;;;21.13;7.43;;;8.70;99.90;;;;;;4998301;28;20534;-77
2023/04/17 07:40:18;;;;;;;27.58;9.07;;;8.70;99.90;;;;;;5000631;28;20034;-76
2023/04/17 07:42:44;;;;;;;24.33;8.43;;;8.90;99.90;;;;;;5034887;28;20112;-76
2023/04/17 07:45:10;;;;;;;23.63;8.43;;;8.90;99.90;;;;;;4997262;28;20561;-75
2023/04/17 07:47:36;;;;;;;24.27;8.00;;;9.00;99.90;;;;;;5002692;28;20503;-76
2023/04/17 07:50:02;;;;;;;23.60;8.73;;;9.00;99.90;;;;;;5001749;28;20069;-77
2023/04/17 07:52:28;;;;;;;19.77;8.07;;;9.00;99.90;;;;;;4998556;28;20045;-76
2023/04/17 07:54:55;;;;;;;22.33;8.38;;;9.10;99.90;;;;;;5000234;28;20066;-76
2023/04/17 07:57:22;;;;;;;25.00;8.55;;;9.10;99.90;;;;;;4995490;28;20026;-76
2023/04/17 07:59:47;;;;;;;18.52;7.93;;;9.20;99.90;;;;;;5002482;28;20100;-76
2023/04/17 08:02:14;;;;;;;21.45;8.25;;;9.20;99.90;;;;;;5003334;28;20443;-76
2023/04/17 08:04:40;;;;;;;19.48;7.95;;;9.30;99.90;;;;;;5003495;28;20044;-76
2023/04/17 08:07:09;;;;;;;21.38;8.25;;;9.30;99.90;;;;;;5026730;28;20496;-76
2023/04/17 08:09:36;;;;;;;21.58;8.15;;;9.40;99.90;;;;;;4994054;28;20045;-76
2023/04/17 08:12:02;;;;;;;23.05;9.18;;;9.40;99.90;;;;;;5001610;28;20531;-77
2023/04/17 08:14:28;;;;;;;21.55;9.57;;;9.40;99.90;;;;;;5000773;28;20056;-76
2023/04/17 08:16:53;;;;;;;16.98;7.72;;;9.50;99.90;;;;;;4993560;28;20038;-76
2023/04/17 08:19:19;;;;;;;21.92;9.95;;;9.50;99.90;;;;;;4987504;28;20088;-76
2023/04/17 08:21:49;;;;;;;21.35;9.63;;;9.60;99.90;;;;;;5031342;28;20065;-77
2023/04/17 08:24:16;;;;;;;26.98;9.98;;;9.70;99.90;;;;;;5001538;28;20038;-76
2023/04/17 08:26:42;;;;;;;21.50;9.18;;;9.70;99.90;;;;;;5017014;28;20438;-76
2023/04/17 08:29:07;;;;;;;17.48;7.90;;;9.80;99.90;;;;;;5019022;28;20186;-76
2023/04/17 08:31:38;;;;;;;21.52;8.65;;;9.90;99.90;;;;;;5029310;28;20037;-77
2023/04/17 08:34:04;;;;;;;23.38;9.57;;;9.90;99.90;;;;;;5027997;28;20495;-77
2023/04/17 08:36:30;;;;;;;20.55;9.05;;;10.00;99.90;;;;;;5027259;28;20038;-76
2023/04/17 08:38:56;;;;;;;23.35;9.38;;;10.00;99.90;;;;;;4998359;28;20034;-77
2023/04/17 08:41:25;;;;;;;22.17;9.48;;;10.10;99.90;;;;;;5027106;28;20048;-76
2023/04/17 08:43:52;;;;;;;27.10;9.23;;;10.10;99.90;;;;;;5027027;28;20069;-77
2023/04/17 08:46:20;;;;;;;22.83;9.82;;;10.20;99.90;;;;;;4996019;28;20523;-77
2023/04/17 08:48:46;;;;;;;25.45;9.18;;;10.30;99.90;;;;;;5031849;28;20121;-77
2023/04/17 08:51:13;;;;;;;21.88;8.32;;;10.30;99.90;;;;;;4999410;28;20129;-77
2023/04/17 08:53:38;;;;;;;21.33;8.52;;;10.30;99.90;;;;;;5010160;28;20372;-77
2023/04/17 08:56:05;;;;;;;19.40;8.60;;;10.40;99.90;;;;;;5047799;28;20049;-77
2023/04/17 08:58:35;;;;;;;26.52;10.15;;;10.40;99.90;;;;;;5028672;28;20519;-77
2023/04/17 09:01:09;;;;;;;21.02;8.32;;;10.40;99.90;;;;;;5014237;28;20037;-77
2023/04/17 09:03:43;;;;;;;22.73;8.68;;;10.40;99.90;;;;;;5029146;28;20419;-76
2023/04/17 09:06:10;;;;;;;24.33;8.65;;;10.50;99.90;;;;;;4993663;28;20038;-77
2023/04/17 09:08:36;;;;;;;21.83;8.93;;;10.50;99.90;;;;;;4987172;28;20078;-77
2023/04/17 09:11:02;;;;;;;22.98;9.63;;;10.50;99.90;;;;;;5020228;28;20042;-76
2023/04/17 09:13:29;;;;;;;21.88;8.82;;;10.60;99.90;;;;;;4998652;28;20140;-77
2023/04/17 09:16:06;;;;;;;21.38;8.85;;;10.70;99.90;;;;;;4985864;28;20416;-76
2023/04/17 09:18:33;;;;;;;18.42;8.80;;;10.70;99.90;;;;;;5031761;28;20033;-76
2023/04/17 09:21:00;;;;;;;20.58;8.95;;;10.80;99.90;;;;;;5012152;28;20037;-76
2023/04/17 09:23:27;;;;;;;17.73;8.82;;;10.80;99.90;;;;;;5004033;28;20034;-77
2023/04/17 09:26:11;;;;;;;19.80;9.18;;;10.90;99.90;;;;;;5020001;28;20038;-76
2023/04/17 09:28:40;;;;;;;19.38;7.97;;;10.90;99.90;;;;;;4998592;28;20080;-77
2023/04/17 09:31:26;;;;;;;18.55;8.65;;;10.90;99.90;;;;;;4989875;28;20559;-77
2023/04/17 09:34:00;;;;;;;19.42;8.57;;;11.00;99.90;;;;;;5030176;28;20092;-77
2023/04/17 09:36:29;;;;;;;18.85;9.23;;;11.00;99.90;;;;;;5033634;28;20571;-77
2023/04/17 09:38:55;;;;;;;19.92;8.27;;;11.00;99.90;;;;;;5028639;28;20081;-76
2023/04/17 09:41:26;;;;;;;16.65;7.93;;;11.10;99.90;;;;;;5018537;28;20045;-76
2023/04/17 09:43:55;;;;;;;17.58;7.75;;;11.10;99.90;;;;;;5035088;28;20286;-77
2023/04/17 09:46:31;;;;;;;16.48;7.60;;;11.10;99.90;;;;;;5012420;28;20621;-76
2023/04/17 09:49:07;;;;;;;;;;;11.20;99.90;;;;;;5022637;28;20108;-76
2023/04/17 09:51:34;;;;;;;18.47;7.90;;;11.20;99.90;;;;;;5011085;28;20322;-76
2023/04/17 09:54:04;;;;;;;15.25;7.68;;;11.30;99.90;;;;;;5021124;28;20049;-76
2023/04/17 09:56:32;;;;;;;21.23;7.60;;;11.20;99.90;;;;;;4992703;28;20173;-76
2023/04/17 09:59:03;;;;;;;14.25;7.22;;;11.30;99.90;;;;;;4993968;28;20591;-76
2023/04/17 10:01:31;;;;;;;19.63;8.63;;;11.30;99.90;;;;;;5025758;28;20038;-76
2023/04/17 10:03:57;;;;;;;17.02;8.30;;;11.40;99.90;;;;;;4994833;28;20046;-76
2023/04/17 10:06:25;;;;;;;15.60;7.38;;;11.40;99.90;;;;;;4987648;28;21160;-76
2023/04/17 10:08:51;;;;;;;14.30;7.43;;;11.50;99.90;;;;;;5025226;28;20073;-75
2023/04/17 10:11:18;;;;;;;17.77;7.95;;;11.60;99.90;;;;;;4990218;28;20568;-76
2023/04/17 10:13:48;;;;;;;15.25;7.03;;;11.60;99.90;;;;;;5000518;28;20069;-76
2023/04/17 10:16:14;;;;;;;13.52;6.65;;;11.70;99.90;;;;;;5033483;28;20042;-76
2023/04/17 10:18:40;;;;;;;15.57;6.97;;;11.80;99.90;;;;;;5041630;28;20053;-76
2023/04/17 10:21:24;;;;;;;16.20;7.35;;;11.80;99.90;;;;;;5025130;28;20120;-77
2023/04/17 10:23:49;;;;;;;15.77;6.97;;;11.90;99.90;;;;;;4995608;28;20030;-76
2023/04/17 10:26:24;;;;;;;11.88;6.60;;;12.00;99.90;;;;;;5025897;28;20135;-76
2023/04/17 10:28:52;;;;;;;15.38;6.80;;;12.00;99.90;;;;;;5042702;28;20041;-76
2023/04/17 10:31:18;;;;;;;13.65;6.90;;;12.10;99.90;;;;;;5045916;28;20125;-76
2023/04/17 10:33:48;;;;;;;15.90;7.25;;;12.00;99.90;;;;;;5028583;28;20065;-76
2023/04/17 10:36:40;;;;;;;13.00;6.22;;;12.10;99.90;;;;;;4988539;28;20397;-76
2023/04/17 10:39:14;;;;;;;12.70;6.50;;;12.20;99.90;;;;;;5043933;28;20046;-76
2023/04/17 10:42:02;;;;;;;12.90;5.53;;;12.30;99.90;;;;;;5041489;28;20784;-76
2023/04/17 10:44:33;;;;;;;10.93;6.20;;;12.30;99.90;;;;;;5029581;28;20104;-77
2023/04/17 10:47:08;;;;;;;14.65;6.40;;;12.40;99.90;;;;;;4997328;28;20041;-76
2023/04/17 10:49:54;;;;;;;14.25;6.55;;;12.40;99.90;;;;;;5026157;28;20049;-76
2023/04/17 10:52:33;;;;;;;16.10;6.47;;;12.50;99.90;;;;;;5033625;28;20161;-76
2023/04/17 10:55:13;;;;;;;11.52;5.60;;;12.60;99.90;;;;;;5008074;28;20082;-76
2023/04/17 10:58:01;;;;;;;12.02;5.85;;;12.50;99.90;;;;;;5047494;28;20120;-76
2023/04/17 11:00:47;;;;;;;10.15;5.72;;;12.50;99.90;;;;;;5047158;28;20042;-76
2023/04/17 11:03:14;;;;;;;10.32;5.50;;;12.60;99.90;;;;;;5008347;28;20271;-75
2023/04/17 11:05:47;;;;;;;10.15;5.00;;;12.70;99.90;;;;;;5012262;28;20491;-76
2023/04/17 11:08:13;;;;;;;9.70;4.85;;;12.70;99.90;;;;;;5023914;28;20049;-76
2023/04/17 11:10:39;;;;;;;12.27;5.53;;;12.70;99.90;;;;;;5008749;28;20084;-76
2023/04/17 11:13:05;;;;;;;11.80;5.18;;;12.80;99.90;;;;;;5004363;28;20081;-76
2023/04/17 11:15:35;;;;;;;8.75;4.53;;;12.80;99.90;;;;;;5019614;28;20088;-76
2023/04/17 11:18:02;;;;;;;8.07;4.18;;;12.90;99.90;;;;;;4991959;28;20227;-76
2023/04/17 11:20:30;;;;;;;10.40;4.13;;;12.80;99.90;;;;;;5033167;28;20066;-76
2023/04/17 11:23:00;;;;;;;8.85;4.05;;;12.90;99.90;;;;;;5022905;28;20427;-76
2023/04/17 11:25:30;;;;;;;11.73;5.10;;;13.00;99.90;;;;;;5003509;28;20042;-76
2023/04/17 11:28:01;;;;;;;11.20;5.53;;;13.10;99.90;;;;;;4995905;28;20045;-76
2023/04/17 11:30:28;;;;;;;9.80;5.55;;;13.20;99.90;;;;;;5011426;28;20034;-76
2023/04/17 11:32:56;;;;;;;13.60;6.07;;;13.30;99.90;;;;;;5018558;28;20041;-75
2023/04/17 11:35:30;;;;;;;12.13;6.15;;;13.20;99.90;;;;;;4997796;28;20070;-75
2023/04/17 11:38:11;;;;;;;10.43;5.53;;;13.20;99.90;;;;;;5008756;28;20088;-76
2023/04/17 11:40:42;;;;;;;10.23;5.03;;;13.10;99.90;;;;;;5004959;28;20048;-75
2023/04/17 11:43:09;;;;;;;11.70;5.38;;;13.20;99.90;;;;;;5023450;28;20109;-76
2023/04/17 11:45:35;;;;;;;10.57;5.13;;;13.20;99.90;;;;;;5012506;28;20078;-76
2023/04/17 11:48:02;;;;;;;11.82;5.35;;;13.20;99.90;;;;;;5027529;28;20076;-75
2023/04/17 11:50:31;;;;;;;10.45;5.60;;;13.20;99.90;;;;;;5003402;28;20050;-76
2023/04/17 11:52:59;;;;;;;10.82;5.30;;;13.30;99.90;;;;;;5008971;28;20511;-75
2023/04/17 11:55:33;;;;;;;10.95;5.50;;;13.30;99.90;;;;;;5040314;28;20041;-75
2023/04/17 11:58:00;;;;;;;12.52;4.88;;;13.30;99.90;;;;;;5030803;28;20049;-75
2023/04/17 12:00:28;;;;;;;8.90;4.68;;;13.30;99.90;;;;;;4998311;28;20129;-76
2023/04/17 12:02:56;;;;;;;11.25;5.32;;;13.30;99.90;;;;;;5050296;28;20042;-76
2023/04/17 12:05:22;;;;;;;10.88;5.93;;;13.30;99.90;;;;;;5048782;28;20100;-75
2023/04/17 12:07:59;;;;;;;10.65;5.72;;;13.30;99.90;;;;;;5037507;28;20069;-75
2023/04/17 12:10:38;;;;;;;11.57;5.03;;;13.30;99.90;;;;;;5033225;28;20038;-76
2023/04/17 12:13:04;;;;;;;10.38;5.20;;;13.30;99.90;;;;;;5038335;28;20566;-76
2023/04/17 12:15:31;;;;;;;10.20;5.00;;;13.30;99.90;;;;;;5009185;28;20071;-75
2023/04/17 12:17:57;;;;;;;11.40;5.78;;;13.30;99.90;;;;;;5044227;28;20550;-75
2023/04/17 12:20:22;;;;;;;11.85;5.07;;;13.30;99.90;;;;;;5057923;28;20431;-75
2023/04/17 12:22:48;;;;;;;11.82;5.53;;;13.30;99.90;;;;;;5003601;28;20034;-76
2023/04/17 12:25:14;;;;;;;13.65;5.47;;;13.30;99.90;;;;;;5008512;28;20069;-75
2023/04/17 12:27:39;;;;;;;9.70;5.18;;;13.30;99.90;;;;;;5001978;28;20042;-75
2023/04/17 12:30:05;;;;;;;10.95;5.72;;;13.40;99.90;;;;;;5034791;28;20092;-75
2023/04/17 12:32:31;;;;;;;12.35;5.90;;;13.50;99.90;;;;;;5002604;28;20037;-76
2023/04/17 12:34:57;;;;;;;10.02;5.60;;;13.50;99.90;;;;;;5003418;28;20046;-74
2023/04/17 12:37:23;;;;;;;11.25;5.78;;;13.60;99.90;;;;;;5046208;28;20068;-75
2023/04/17 12:39:49;;;;;;;12.18;5.40;;;13.60;99.90;;;;;;5003386;28;20046;-75
2023/04/17 12:42:15;;;;;;;11.00;5.65;;;13.50;99.90;;;;;;5002888;28;22082;-74
2023/04/17 12:44:40;;;;;;;9.77;5.28;;;13.50;99.90;;;;;;5000323;28;20099;-75